Time;durP1;ratioP1;P1;durP2;ratioP2;P2;SDS_P1;SDS_P2;PMS_P1;PMS_P2;Temp;Humidity;BMP_temperature;BMP_pressure;BME280_temperature;BME280_humidity;BME280_pressure;Samples;Min_cycle;Max_cycle;Signal;HPM_P1;HPM_P2
2023/10/24 00:00:29;;;;;;;13.57;1.90;;;;;;;-145.69;61.38;52143.38;5075865;28;20203;-80
2023/10/24 00:02:55;;;;;;;4.28;1.83;;;;;;;-145.69;61.62;52171.09;5077682;28;20210;-80
2023/10/24 00:05:23;;;;;;;5.25;1.60;;;;;;;-145.69;61.46;52163.19;5080713;28;20653;-80
2023/10/24 00:07:50;;;;;;;7.75;2.42;;;;;;;-145.69;61.54;52175.06;5090291;28;20197;-80
2023/10/24 00:10:17;;;;;;;3.43;1.53;;;;;;;-145.69;61.44;52163.19;5077121;28;20226;-80
2023/10/24 00:12:44;;;;;;;5.60;2.10;;;;;;;-145.69;61.35;52155.25;5080179;28;20248;-80
2023/10/24 00:15:11;;;;;;;6.25;1.85;;;;;;;-145.69;61.41;52169.13;5083040;28;20195;-80
2023/10/24 00:17:37;;;;;;;3.23;1.47;;;;;;;-145.69;61.18;52143.38;5082724;28;20208;-80
2023/10/24 00:20:05;;;;;;;4.25;1.50;;;;;;;-145.69;61.34;52161.19;5077802;28;20199;-80
2023/10/24 00:22:32;;;;;;;4.65;1.55;;;;;;;-145.69;61.18;52169.13;5077251;28;20286;-79
2023/10/24 00:24:59;;;;;;;8.73;1.75;;;;;;;-145.69;61.15;52188.91;5078631;28;20252;-79
2023/10/24 00:27:26;;;;;;;8.65;2.55;;;;;;;-145.69;62.39;52117.63;5081244;28;20195;-80
2023/10/24 00:29:52;;;;;;;5.47;1.55;;;;;;;-145.69;62.19;52192.88;5078433;28;20210;-81
2023/10/24 00:32:19;;;;;;;6.28;1.33;;;;;;;-145.69;62.45;52131.50;5076508;28;20230;-80
2023/10/24 00:34:45;;;;;;;3.65;1.27;;;;;;;-145.69;61.99;52192.88;5075342;28;20187;-80
2023/10/24 00:37:12;;;;;;;8.27;1.60;;;;;;;-145.69;62.20;52165.16;5084854;28;20314;-80
2023/10/24 00:39:40;;;;;;;6.25;1.05;;;;;;;-145.69;62.73;52153.28;5079358;28;20213;-80
2023/10/24 00:42:06;;;;;;;4.82;1.38;;;;;;;-145.69;62.04;52155.25;5081834;28;20245;-81
2023/10/24 00:44:33;;;;;;;5.75;1.30;;;;;;;-145.69;61.71;52151.28;5084820;28;20289;-80
2023/10/24 00:47:01;;;;;;;6.90;1.33;;;;;;;-145.69;61.39;52117.63;5080271;28;20222;-80
2023/10/24 00:49:28;;;;;;;2.78;1.10;;;;;;;-145.69;61.50;52151.28;5076323;28;20281;-80
2023/10/24 00:51:56;;;;;;;10.10;1.42;;;;;;;-145.69;61.98;52125.56;5078713;28;20217;-80
2023/10/24 00:54:23;;;;;;;2.60;0.88;;;;;;;-145.69;62.21;52135.47;5079715;28;20650;-80
2023/10/24 00:56:52;;;;;;;6.82;1.38;;;;;;;-145.69;62.07;52155.25;5081292;28;20230;-80
2023/10/24 00:59:22;;;;;;;7.13;1.02;;;;;;;-145.69;61.92;52169.13;5076181;28;20199;-80
2023/10/24 01:01:49;;;;;;;10.40;1.20;;;;;;;-145.69;62.21;52149.31;5077000;28;20226;-80
2023/10/24 01:04:18;;;;;;;5.15;1.30;;;;;;;-145.69;62.62;52159.22;5081437;28;20202;-80
2023/10/24 01:06:43;;;;;;;2.70;0.77;;;;;;;-145.69;62.51;52171.09;5084421;28;20199;-79
2023/10/24 01:09:10;;;;;;;6.43;1.20;;;;;;;-145.69;62.49;52115.66;5079432;28;20297;-80
2023/10/24 01:11:37;;;;;;;2.90;0.88;;;;;;;-145.69;62.63;52163.19;5078145;28;20654;-80
2023/10/24 01:14:05;;;;;;;4.15;0.75;;;;;;;-145.69;62.14;52143.38;5076966;28;20286;-80
2023/10/24 01:16:33;;;;;;;4.63;1.17;;;;;;;-145.69;61.68;52133.47;5078603;28;20211;-80
2023/10/24 01:19:00;;;;;;;7.47;1.20;;;;;;;-145.69;61.70;52143.38;5079812;28;20191;-80
2023/10/24 01:21:26;;;;;;;3.50;0.80;;;;;;;-145.69;61.45;52159.22;5099087;28;20234;-80
2023/10/24 01:23:57;;;;;;;3.88;0.95;;;;;;;-145.69;61.67;52165.16;5098494;28;20286;-80
2023/10/24 01:26:25;;;;;;;3.35;0.95;;;;;;;-145.69;61.61;52135.47;5096597;28;20288;-80
2023/10/24 01:28:52;;;;;;;1.60;0.70;;;;;;;-145.69;61.76;52107.72;5087573;28;20209;-80
2023/10/24 01:31:18;;;;;;;7.50;0.85;;;;;;;-145.69;61.62;52145.34;5082778;28;20220;-80
2023/10/24 01:33:45;;;;;;;2.22;0.80;;;;;;;-145.69;61.38;52125.56;5083421;28;20205;-80
2023/10/24 01:36:11;;;;;;;5.50;1.08;;;;;;;-145.69;61.54;52131.50;5084208;28;20223;-79
2023/10/24 01:38:38;;;;;;;2.00;0.68;;;;;;;-145.69;61.89;52139.41;5080236;28;20294;-80
2023/10/24 01:41:06;;;;;;;2.53;0.90;;;;;;;-145.69;62.60;52135.47;5081909;28;20206;-80
2023/10/24 01:43:32;;;;;;;6.10;0.80;;;;;;;-145.69;62.10;52175.06;5081311;28;20245;-80
2023/10/24 01:45:59;;;;;;;5.38;1.10;;;;;;;-145.69;62.12;52131.50;5081965;28;20217;-81
2023/10/24 01:48:26;;;;;;;5.63;0.88;;;;;;;-145.69;62.51;52153.28;5078776;28;20194;-79
2023/10/24 01:50:52;;;;;;;3.60;0.80;;;;;;;-145.69;62.64;52137.44;5092567;28;20553;-80
2023/10/24 01:53:19;;;;;;;4.68;0.90;;;;;;;-145.69;62.73;52190.91;5095640;28;20660;-80
2023/10/24 01:55:45;;;;;;;3.83;0.88;;;;;;;-145.69;63.14;52153.28;5094347;28;20680;-79
2023/10/24 01:58:13;;;;;;;5.30;1.05;;;;;;;-145.69;63.39;52143.38;5093934;28;20198;-80
2023/10/24 02:00:40;;;;;;;5.05;0.98;;;;;;;-145.69;63.21;52169.13;5095808;28;20198;-79
2023/10/24 02:03:06;;;;;;;6.25;1.13;;;;;;;-145.69;63.41;52141.41;5097519;28;20212;-80
2023/10/24 02:05:32;;;;;;;1.95;1.00;;;;;;;-145.69;62.81;52131.50;5092401;28;20195;-80
2023/10/24 02:07:59;;;;;;;7.72;1.00;;;;;;;-145.69;63.41;52155.25;5076714;28;20201;-79
2023/10/24 02:10:25;;;;;;;4.07;0.90;;;;;;;-145.69;63.45;52133.47;5079284;28;20209;-79
2023/10/24 02:12:52;;;;;;;4.05;0.90;;;;;;;-145.69;63.71;52171.09;5074338;28;20203;-80
2023/10/24 02:15:20;;;;;;;2.72;0.68;;;;;;;-145.69;63.23;52153.28;5094035;28;20205;-80
2023/10/24 02:17:46;;;;;;;2.38;0.80;;;;;;;-145.69;63.50;52141.41;5097400;28;20233;-80
2023/10/24 02:20:13;;;;;;;5.55;0.88;;;;;;;-145.69;64.04;52165.16;5082458;28;20199;-80
2023/10/24 02:22:40;;;;;;;1.95;0.85;;;;;;;-145.69;63.67;52131.50;5077946;28;20572;-79
2023/10/24 02:25:08;;;;;;;9.35;1.20;;;;;;;-145.69;63.89;52161.19;5079387;28;20277;-80
2023/10/24 02:27:36;;;;;;;5.53;1.10;;;;;;;-145.69;64.50;52165.16;5077308;28;20578;-80
2023/10/24 02:30:03;;;;;;;5.13;1.23;;;;;;;-145.69;64.18;52141.41;5076205;28;20260;-80
2023/10/24 02:32:31;;;;;;;3.92;1.13;;;;;;;-145.69;64.59;52129.50;5078442;28;20203;-80
2023/10/24 02:34:58;;;;;;;3.90;0.90;;;;;;;-145.69;64.44;52175.06;5078339;28;20202;-80
2023/10/24 02:37:24;;;;;;;4.90;1.10;;;;;;;-145.69;64.44;52151.28;5077763;28;20254;-80
2023/10/24 02:39:51;;;;;;;4.68;0.82;;;;;;;-145.69;64.58;52131.50;5075711;28;20222;-80
2023/10/24 02:42:17;;;;;;;8.27;1.30;;;;;;;-145.69;64.12;52175.06;5077669;28;20230;-80
2023/10/24 02:44:48;;;;;;;5.78;1.65;;;;;;;-145.69;63.69;52159.22;5076909;28;20206;-80
2023/10/24 02:47:15;;;;;;;3.60;0.95;;;;;;;-145.69;63.74;52147.34;5073889;28;20205;-80
2023/10/24 02:49:43;;;;;;;4.93;0.93;;;;;;;-145.69;63.49;52123.56;5074151;28;20277;-80
2023/10/24 02:52:09;;;;;;;1.77;0.77;;;;;;;-145.69;63.49;52179.03;5073496;28;20199;-80
2023/10/24 02:54:36;;;;;;;7.18;1.02;;;;;;;-145.69;63.38;52147.34;5072605;28;20209;-80
2023/10/24 02:57:02;;;;;;;4.45;0.98;;;;;;;-145.69;64.58;52182.97;5073109;28;20457;-80
2023/10/24 02:59:29;;;;;;;5.20;0.93;;;;;;;-145.69;63.74;52135.47;5078502;28;20195;-80
2023/10/24 03:01:55;;;;;;;8.68;1.15;;;;;;;-145.69;63.88;52157.25;5076170;28;20257;-80
2023/10/24 03:04:22;;;;;;;7.35;2.40;;;;;;;-145.69;64.21;52173.09;5077803;28;20191;-80
2023/10/24 03:06:50;;;;;;;8.32;1.50;;;;;;;-145.69;64.79;52173.09;5102661;28;20194;-80
2023/10/24 03:09:16;;;;;;;7.03;1.40;;;;;;;-145.69;64.64;52121.59;5104703;28;20202;-80
2023/10/24 03:11:43;;;;;;;7.85;1.50;;;;;;;-145.69;64.79;52159.22;5097474;28;20202;-80
2023/10/24 03:14:09;;;;;;;4.75;0.82;;;;;;;-145.69;64.66;52169.13;5095053;28;20206;-80
2023/10/24 03:16:36;;;;;;;4.38;1.10;;;;;;;-145.69;64.68;52143.38;5089312;28;20245;-80
2023/10/24 03:19:02;;;;;;;9.73;1.00;;;;;;;-145.69;64.31;52171.09;5108060;28;20193;-81
2023/10/24 03:21:29;;;;;;;7.38;1.08;;;;;;;-145.69;64.37;52157.25;5104939;28;20263;-80
2023/10/24 03:23:57;;;;;;;6.47;1.20;;;;;;;-145.69;64.88;52165.16;5101153;28;20203;-80
2023/10/24 03:26:23;;;;;;;3.47;1.13;;;;;;;-145.69;64.41;52151.28;5087808;28;20195;-80
2023/10/24 03:28:49;;;;;;;6.70;1.40;;;;;;;-145.69;64.56;52151.28;5100088;28;20214;-80
2023/10/24 03:31:16;;;;;;;6.18;1.00;;;;;;;-145.69;64.25;52143.38;5100604;28;20209;-80
2023/10/24 03:33:42;;;;;;;2.90;1.00;;;;;;;-145.69;64.31;52173.09;5098149;28;20205;-80
2023/10/24 03:36:13;;;;;;;5.88;1.20;;;;;;;-145.69;63.87;52145.34;5099799;28;20201;-80
2023/10/24 03:38:40;;;;;;;7.75;1.15;;;;;;;-145.69;64.30;52169.13;5101775;28;20209;-80
2023/10/24 03:41:08;;;;;;;5.32;1.08;;;;;;;-145.69;63.64;52121.59;5097400;28;20198;-80
2023/10/24 03:43:35;;;;;;;9.60;1.35;;;;;;;-145.69;64.13;52186.94;5085848;28;20580;-80
2023/10/24 03:46:06;;;;;;;4.63;1.17;;;;;;;-145.69;63.91;52188.91;5082150;28;20601;-81
2023/10/24 03:48:32;;;;;;;6.22;1.65;;;;;;;-145.69;63.94;52186.94;5078708;28;20202;-80
2023/10/24 03:50:59;;;;;;;5.93;1.55;;;;;;;-145.69;63.79;52159.22;5080279;28;20661;-79
2023/10/24 03:53:26;;;;;;;6.03;1.48;;;;;;;-145.69;64.17;52171.09;5096732;28;20645;-80
2023/10/24 03:55:57;;;;;;;9.02;1.50;;;;;;;-145.69;64.04;52167.13;5103120;28;20209;-81
2023/10/24 03:58:25;;;;;;;6.93;1.38;;;;;;;-145.69;64.09;52163.19;5082804;28;20229;-79
2023/10/24 04:00:51;;;;;;;4.68;1.58;;;;;;;-145.69;64.11;52149.31;5080193;28;20203;-80
2023/10/24 04:03:19;;;;;;;9.45;1.48;;;;;;;-145.69;63.86;52161.19;5077251;28;20672;-80
2023/10/24 04:05:46;;;;;;;5.93;1.38;;;;;;;-145.69;64.12;52167.13;5079542;28;20206;-80
2023/10/24 04:08:12;;;;;;;6.13;1.47;;;;;;;-145.69;64.22;52169.13;5079888;28;20207;-80
2023/10/24 04:10:39;;;;;;;3.55;1.27;;;;;;;-145.69;64.22;52171.09;5078296;28;20210;-80
2023/10/24 04:13:05;;;;;;;6.82;1.45;;;;;;;-145.69;64.31;52179.03;5076488;28;20203;-80
2023/10/24 04:15:33;;;;;;;8.05;1.58;;;;;;;-145.69;64.31;52163.19;5077316;28;20203;-79
2023/10/24 04:17:59;;;;;;;4.57;1.45;;;;;;;-145.69;64.38;52190.91;5076392;28;20226;-79
2023/10/24 04:20:26;;;;;;;9.88;1.77;;;;;;;-145.69;64.08;52159.22;5077265;28;20202;-80
2023/10/24 04:22:53;;;;;;;7.57;1.70;;;;;;;-145.69;64.44;52167.13;5096050;28;20850;-80
2023/10/24 04:25:19;;;;;;;5.40;1.10;;;;;;;-145.69;64.00;52163.19;5099194;28;20565;-81
2023/10/24 04:27:46;;;;;;;7.40;1.70;;;;;;;-145.69;64.05;52175.06;5101675;28;20224;-81
2023/10/24 04:30:13;;;;;;;3.42;1.50;;;;;;;-145.69;63.80;52147.34;5096956;28;20206;-80
2023/10/24 04:32:41;;;;;;;7.85;2.22;;;;;;;-145.69;63.89;52171.09;5096089;28;20213;-80
2023/10/24 04:35:08;;;;;;;5.28;1.50;;;;;;;-145.69;63.76;52147.34;5086919;28;20531;-80
2023/10/24 04:37:35;;;;;;;6.35;1.60;;;;;;;-145.69;63.47;52151.28;5102602;28;20225;-80
2023/10/24 04:40:01;;;;;;;6.45;1.65;;;;;;;-145.69;63.51;52151.28;5099981;28;20201;-80
2023/10/24 04:42:28;;;;;;;6.53;1.50;;;;;;;-145.69;63.83;52171.09;5098133;28;20301;-79
2023/10/24 04:44:55;;;;;;;5.40;1.30;;;;;;;-145.69;63.48;52177.03;5102801;28;20201;-80
2023/10/24 04:47:21;;;;;;;7.35;1.40;;;;;;;-145.69;63.32;52163.19;5098413;28;20198;-81
2023/10/24 04:49:49;;;;;;;2.65;1.20;;;;;;;-145.69;64.09;52133.47;5098157;28;20214;-80
2023/10/24 04:52:15;;;;;;;10.43;1.73;;;;;;;-145.69;63.53;52139.41;5098037;28;20203;-80
2023/10/24 04:54:42;;;;;;;9.20;1.48;;;;;;;-145.69;63.75;52141.41;5099792;28;20537;-80
2023/10/24 04:57:09;;;;;;;8.52;1.63;;;;;;;-145.69;63.50;52163.19;5096814;28;20230;-80
2023/10/24 04:59:37;;;;;;;6.32;1.80;;;;;;;-145.69;63.51;52194.88;5097672;28;20206;-80
2023/10/24 05:02:03;;;;;;;4.80;1.60;;;;;;;-145.69;63.34;52149.31;5098126;28;20641;-80
2023/10/24 05:04:30;;;;;;;3.28;1.50;;;;;;;-145.69;63.64;52163.19;5097553;28;20191;-79
2023/10/24 05:06:58;;;;;;;11.57;1.65;;;;;;;-145.69;63.56;52153.28;5096893;28;20557;-80
2023/10/24 05:09:30;;;;;;;7.28;1.30;;;;;;;-145.69;63.25;52149.31;5098508;28;20617;-81
2023/10/24 05:12:03;;;;;;;7.68;1.42;;;;;;;-145.69;63.07;52163.19;5097495;28;20194;-80
2023/10/24 05:14:29;;;;;;;6.55;1.50;;;;;;;-145.69;62.73;52149.31;5094990;28;20253;-80
2023/10/24 05:16:56;;;;;;;5.28;1.77;;;;;;;-145.69;62.70;52149.31;5094580;28;20233;-80
2023/10/24 05:19:22;;;;;;;7.45;1.88;;;;;;;-145.69;62.72;52186.94;5095625;28;20194;-80
2023/10/24 05:21:49;;;;;;;7.15;1.88;;;;;;;-145.69;62.76;52175.06;5100651;28;20200;-80
2023/10/24 05:24:17;;;;;;;10.18;1.90;;;;;;;-145.69;62.94;52175.06;5099148;28;20564;-81
2023/10/24 05:26:43;;;;;;;7.07;1.77;;;;;;;-145.69;62.94;52163.19;5097280;28;20649;-80
2023/10/24 05:29:09;;;;;;;5.50;1.58;;;;;;;-145.69;63.02;52151.28;5099340;28;20198;-80
2023/10/24 05:31:36;;;;;;;4.60;1.50;;;;;;;-145.69;62.98;52190.91;5100093;28;20198;-80
2023/10/24 05:34:03;;;;;;;5.55;1.70;;;;;;;-145.69;62.75;52179.03;5094022;28;20594;-80
2023/10/24 05:36:29;;;;;;;4.85;1.50;;;;;;;-145.69;62.47;52155.25;5076827;28;20749;-80
2023/10/24 05:38:56;;;;;;;9.20;1.70;;;;;;;-145.69;62.93;52139.41;5077505;28;20230;-80
2023/10/24 05:41:24;;;;;;;6.30;1.67;;;;;;;-145.69;62.69;52171.09;5080730;28;20738;-80
2023/10/24 05:43:50;;;;;;;3.58;1.67;;;;;;;-145.69;62.67;52169.13;5080202;28;20230;-80
2023/10/24 05:46:32;;;;;;;8.43;2.05;;;;;;;-145.69;62.51;52190.91;5066025;28;20266;-80
2023/10/24 05:48:58;;;;;;;12.30;1.73;;;;;;;-145.69;62.64;52173.09;5096175;28;20206;-80
2023/10/24 05:51:29;;;;;;;11.35;1.77;;;;;;;-145.69;62.72;52163.19;5096532;28;20202;-80
2023/10/24 05:53:56;;;;;;;4.55;1.55;;;;;;;-145.69;62.49;52157.25;5101594;28;20657;-81
2023/10/24 05:56:24;;;;;;;7.15;1.90;;;;;;;-145.69;62.31;52143.38;5095402;28;20257;-79
2023/10/24 05:58:50;;;;;;;7.65;1.75;;;;;;;-145.69;62.27;52139.41;5095278;28;20692;-80
2023/10/24 06:01:17;;;;;;;4.13;1.88;;;;;;;-145.69;62.31;52135.47;5095198;28;20204;-80
2023/10/24 06:03:44;;;;;;;5.68;1.88;;;;;;;-145.69;62.28;52155.25;5093695;28;20205;-80
2023/10/24 06:06:10;;;;;;;10.38;1.88;;;;;;;-145.69;61.97;52184.97;5075527;28;20657;-80
2023/10/24 06:08:37;;;;;;;4.75;1.55;;;;;;;-145.69;61.84;52137.44;5072084;28;20281;-80
2023/10/24 06:11:04;;;;;;;7.18;1.70;;;;;;;-145.69;61.92;52173.09;5082353;28;20268;-80
2023/10/24 06:13:32;;;;;;;7.50;1.52;;;;;;;-145.69;61.84;52141.41;5075728;28;20199;-81
2023/10/24 06:16:07;;;;;;;4.38;1.60;;;;;;;-145.69;61.17;52167.13;5090911;28;20255;-80
2023/10/24 06:18:33;;;;;;;4.20;1.30;;;;;;;-145.69;61.26;52143.38;5092977;28;20232;-81
2023/10/24 06:21:03;;;;;;;5.53;1.65;;;;;;;-145.69;61.13;52184.97;5094479;28;20198;-81
2023/10/24 06:23:29;;;;;;;9.13;1.73;;;;;;;-145.69;60.98;52161.19;5097422;28;20197;-82
2023/10/24 06:25:56;;;;;;;8.02;1.80;;;;;;;-145.69;60.79;52169.13;5094459;28;20661;-81
2023/10/24 06:28:23;;;;;;;7.57;1.92;;;;;;;-145.69;60.86;52127.53;5096583;28;20201;-81
2023/10/24 06:30:57;;;;;;;9.25;1.83;;;;;;;-145.69;60.56;52139.41;5098159;28;20198;-81
2023/10/24 06:33:23;;;;;;;3.78;1.73;;;;;;;-145.69;60.79;52151.28;5077433;28;20202;-81
2023/10/24 06:35:50;;;;;;;5.22;1.70;;;;;;;-145.69;60.59;52159.22;5077687;28;20607;-81
2023/10/24 06:38:17;;;;;;;11.82;2.00;;;;;;;-145.69;60.62;52173.09;5079190;28;20585;-80
2023/10/24 06:40:45;;;;;;;9.13;1.92;;;;;;;-145.69;60.65;52157.25;5079231;28;20236;-81
2023/10/24 06:43:11;;;;;;;9.07;2.03;;;;;;;-145.69;60.84;52151.28;5081220;28;20253;-82
2023/10/24 06:45:39;;;;;;;4.70;1.80;;;;;;;-145.69;60.84;52147.34;5086091;28;20199;-81
2023/10/24 06:48:07;;;;;;;5.55;1.77;;;;;;;-145.69;60.40;52147.34;5077074;28;20268;-82
2023/10/24 06:50:33;;;;;;;2.78;1.42;;;;;;;-145.69;60.59;52151.28;5078692;28;20191;-81
2023/10/24 06:53:00;;;;;;;5.72;1.73;;;;;;;-145.69;60.92;52163.19;5078379;28;20191;-81
2023/10/24 06:55:26;;;;;;;6.68;1.73;;;;;;;-145.69;60.64;52161.19;5079021;28;21031;-82
2023/10/24 06:57:53;;;;;;;3.30;1.40;;;;;;;-145.69;60.59;52169.13;5078887;28;20227;-81
2023/10/24 07:00:21;;;;;;;6.65;1.60;;;;;;;-145.69;60.94;52149.31;5077852;28;20195;-81
2023/10/24 07:02:47;;;;;;;5.78;1.80;;;;;;;-145.69;60.82;52173.09;5077719;28;20541;-81
2023/10/24 07:05:15;;;;;;;6.78;1.70;;;;;;;-145.69;60.64;52123.56;5077215;28;20209;-81
2023/10/24 07:07:42;;;;;;;7.35;1.70;;;;;;;-145.69;60.53;52159.22;5077393;28;20664;-81
2023/10/24 07:10:09;;;;;;;11.70;1.90;;;;;;;-145.69;60.59;52159.22;5077669;28;20202;-81
2023/10/24 07:12:35;;;;;;;8.63;2.10;;;;;;;-145.69;60.68;52175.06;5077594;28;20225;-82
2023/10/24 07:15:03;;;;;;;3.33;1.60;;;;;;;-145.69;60.56;52157.25;5083087;28;20198;-81
2023/10/24 07:17:30;;;;;;;3.65;1.75;;;;;;;-145.69;61.89;52135.47;5096176;28;20449;-81
2023/10/24 07:19:58;;;;;;;2.78;1.20;;;;;;;-145.69;61.07;52167.13;5097964;28;20714;-81
2023/10/24 07:22:27;;;;;;;5.32;1.95;;;;;;;-145.69;61.85;52167.13;5089127;28;20738;-80
2023/10/24 07:24:54;;;;;;;4.35;1.77;;;;;;;-145.69;61.63;52161.19;5079754;28;20199;-81
2023/10/24 07:27:20;;;;;;;6.95;1.63;;;;;;;-145.69;61.59;52129.50;5095348;28;20198;-80
2023/10/24 07:29:47;;;;;;;6.10;1.73;;;;;;;-145.69;61.14;52143.38;5098743;28;20595;-80
2023/10/24 07:32:14;;;;;;;6.15;1.20;;;;;;;-145.69;61.17;52167.13;5102003;28;20595;-80
2023/10/24 07:34:41;;;;;;;2.22;1.50;;;;;;;-145.69;61.01;52143.38;5101447;28;20530;-81
2023/10/24 07:37:08;;;;;;;2.90;1.20;;;;;;;-145.69;61.24;52163.19;5100463;28;20206;-79
2023/10/24 07:39:36;;;;;;;4.63;1.42;;;;;;;-145.69;60.74;52159.22;5100536;28;20711;-80
2023/10/24 07:42:03;;;;;;;2.42;1.23;;;;;;;-145.69;61.23;52147.34;5100302;28;20234;-80
2023/10/24 07:44:29;;;;;;;2.60;1.13;;;;;;;-145.69;60.83;52171.09;5101485;28;20201;-80
2023/10/24 07:46:56;;;;;;;4.63;1.30;;;;;;;-145.69;61.21;52139.41;5096789;28;20205;-80
2023/10/24 07:49:23;;;;;;;2.45;1.10;;;;;;;-145.69;61.00;52111.69;5100542;28;20198;-81
2023/10/24 07:51:49;;;;;;;2.40;0.90;;;;;;;-145.69;60.95;52135.47;5099044;28;20676;-80
2023/10/24 07:54:15;;;;;;;5.63;0.88;;;;;;;-145.69;60.57;52151.28;5096130;28;20198;-80
2023/10/24 07:56:43;;;;;;;6.15;0.90;;;;;;;-145.69;60.41;52155.25;5096292;28;20565;-80
2023/10/24 07:59:10;;;;;;;3.60;1.00;;;;;;;-145.69;60.06;52127.53;5100029;28;20226;-81
2023/10/24 08:01:36;;;;;;;3.38;1.10;;;;;;;-145.69;59.58;52117.63;5078691;28;20225;-80
2023/10/24 08:04:03;;;;;;;1.42;0.80;;;;;;;-145.69;59.62;52135.47;5095649;28;20568;-80
2023/10/24 08:06:30;;;;;;;2.05;0.90;;;;;;;-145.69;59.74;52151.28;5082463;28;20222;-81
2023/10/24 08:08:56;;;;;;;3.80;0.70;;;;;;;-145.69;59.72;52115.66;5080847;28;20227;-81
2023/10/24 08:11:23;;;;;;;1.67;1.00;;;;;;;-145.69;59.85;52131.50;5074791;28;20210;-80
2023/10/24 08:13:50;;;;;;;6.75;1.30;;;;;;;-145.69;59.93;52131.50;5074656;28;20210;-80
2023/10/24 08:16:17;;;;;;;1.27;0.60;;;;;;;-145.69;60.00;52131.50;5076833;28;20203;-81
2023/10/24 08:18:45;;;;;;;2.40;0.90;;;;;;;-145.69;60.16;52125.56;5094909;28;20635;-80
2023/10/24 08:21:12;;;;;;;2.85;0.85;;;;;;;-145.69;60.09;52137.44;5094775;28;20526;-81
2023/10/24 08:23:39;;;;;;;6.25;0.93;;;;;;;-145.69;60.48;52141.41;5089640;28;20281;-80
2023/10/24 08:26:05;;;;;;;3.75;0.90;;;;;;;-145.69;60.62;52151.28;5074487;28;20202;-80
2023/10/24 08:28:32;;;;;;;1.92;0.90;;;;;;;-145.69;60.92;52155.25;5074154;28;20201;-80
2023/10/24 08:30:59;;;;;;;3.95;1.30;;;;;;;-145.69;61.26;52127.53;5074205;28;20202;-81
2023/10/24 08:33:28;;;;;;;2.60;1.00;;;;;;;-145.69;61.96;52145.34;5075744;28;20198;-80
2023/10/24 08:35:54;;;;;;;1.48;0.77;;;;;;;-145.69;62.91;52161.19;5074367;28;20202;-80
2023/10/24 08:38:22;;;;;;;2.95;0.80;;;;;;;-145.69;63.49;52155.25;5074370;28;20233;-80
2023/10/24 08:40:48;;;;;;;2.88;1.00;;;;;;;-145.69;64.83;52131.50;5074538;28;20257;-79
2023/10/24 08:43:16;;;;;;;3.83;0.80;;;;;;;-145.69;65.24;52139.41;5074294;28;20234;-81
2023/10/24 08:45:43;;;;;;;1.45;0.80;;;;;;;-145.69;65.48;52143.38;5090185;28;20675;-81
2023/10/24 08:48:11;;;;;;;3.20;1.10;;;;;;;-145.69;65.39;52167.13;5075728;28;20222;-80
2023/10/24 08:50:38;;;;;;;4.25;1.00;;;;;;;-145.69;65.59;52155.25;5074091;28;20539;-79
2023/10/24 08:53:05;;;;;;;2.65;1.08;;;;;;;-145.69;65.65;52173.09;5073778;28;20199;-79
2023/10/24 08:55:32;;;;;;;5.82;1.10;;;;;;;-145.69;65.49;52125.56;5091710;28;20202;-79
2023/10/24 08:58:00;;;;;;;3.53;0.88;;;;;;;-145.69;65.36;52147.34;5094074;28;20201;-80
2023/10/24 09:00:27;;;;;;;4.85;0.95;;;;;;;-145.69;65.44;52137.44;5093084;28;20210;-78
2023/10/24 09:02:56;;;;;;;5.32;2.10;;;;;;;-145.69;65.16;52175.06;5092012;28;20250;-78
2023/10/24 09:05:27;;;;;;;8.30;2.08;;;;;;;-145.69;65.19;52143.38;5092278;28;20210;-79
2023/10/24 09:07:54;;;;;;;4.07;1.85;;;;;;;-145.69;65.05;52155.25;5093752;28;20194;-78
2023/10/24 09:10:21;;;;;;;5.60;1.63;;;;;;;-145.69;65.04;52143.38;5094222;28;20248;-79
2023/10/24 09:12:47;;;;;;;2.28;1.17;;;;;;;-145.69;64.66;52163.19;5091784;28;20206;-80
2023/10/24 09:15:14;;;;;;;3.40;1.25;;;;;;;-145.69;64.89;52129.50;5090065;28;20285;-80
2023/10/24 09:17:43;;;;;;;2.88;1.10;;;;;;;-145.69;65.17;52127.53;5082843;28;20190;-80
2023/10/24 09:20:10;;;;;;;1.17;0.95;;;;;;;-145.69;64.84;52137.44;5086306;28;20257;-80
2023/10/24 09:22:41;;;;;;;3.40;1.10;;;;;;;-145.69;64.65;52139.41;5074345;28;20198;-80
2023/10/24 09:25:08;;;;;;;1.48;1.00;;;;;;;-145.69;65.04;52151.28;5078145;28;20218;-80
2023/10/24 09:27:35;;;;;;;2.22;0.88;;;;;;;-145.69;64.79;52127.53;5075316;28;20230;-81
2023/10/24 09:30:10;;;;;;;1.40;0.85;;;;;;;-145.69;64.51;52129.50;5073133;28;20198;-80
2023/10/24 09:32:39;;;;;;;2.17;1.00;;;;;;;-145.69;64.46;52111.69;5073079;28;20206;-80
2023/10/24 09:35:06;;;;;;;1.10;0.70;;;;;;;-145.69;64.54;52143.38;5072935;28;20198;-80
2023/10/24 09:37:33;;;;;;;3.90;1.00;;;;;;;-145.69;65.06;52119.63;5072549;28;20233;-80
2023/10/24 09:40:03;;;;;;;1.40;0.60;;;;;;;-145.69;64.89;52107.72;5072683;28;20261;-80
2023/10/24 09:42:31;;;;;;;1.15;0.60;;;;;;;-145.69;64.79;52131.50;5072424;28;20300;-80
2023/10/24 09:45:00;;;;;;;2.38;0.90;;;;;;;-145.69;64.83;52113.66;5071534;28;20615;-80
2023/10/24 09:47:27;;;;;;;2.33;0.82;;;;;;;-145.69;64.46;52155.25;5072184;28;20527;-80
2023/10/24 09:49:54;;;;;;;0.90;0.70;;;;;;;-145.69;64.67;52119.63;5076930;28;20251;-80
2023/10/24 09:52:50;;;;;;;2.72;0.70;;;;;;;-145.69;63.99;52121.59;5091932;28;20210;-80
2023/10/24 09:55:18;;;;;;;0.70;0.60;;;;;;;-145.69;64.74;52139.41;5091954;28;20280;-80
2023/10/24 09:57:48;;;;;;;0.70;0.60;;;;;;;-145.69;65.06;52115.66;5091143;28;20209;-80
2023/10/24 10:00:16;;;;;;;0.70;0.52;;;;;;;-145.69;65.24;52131.50;5092432;28;20226;-81
2023/10/24 10:02:44;;;;;;;1.10;0.50;;;;;;;-145.69;65.46;52127.53;5092447;28;20205;-80
2023/10/24 10:05:13;;;;;;;1.27;0.50;;;;;;;-145.69;65.26;52111.69;5078832;28;20209;-80
2023/10/24 10:07:41;;;;;;;1.65;0.57;;;;;;;-145.69;65.48;52121.59;5072472;28;20205;-80
2023/10/24 10:10:11;;;;;;;1.38;0.60;;;;;;;-145.69;65.55;52141.41;5057054;28;20196;-80
2023/10/24 10:12:40;;;;;;;3.67;1.05;;;;;;;-145.69;64.96;52113.66;5054645;28;20203;-80
2023/10/24 10:15:18;;;;;;;1.25;0.80;;;;;;;-145.69;64.53;52135.47;5055139;28;20203;-80
2023/10/24 10:17:53;;;;;;;1.80;1.00;;;;;;;-145.69;64.50;52103.78;5079126;28;20193;-79
2023/10/24 10:20:43;;;;;;;0.90;0.60;;;;;;;-145.69;64.19;52085.94;5098274;28;20228;-80
2023/10/24 10:23:25;;;;;;;0.52;0.30;;;;;;;-145.69;64.45;52137.44;5102644;28;20208;-81
2023/10/24 10:26:02;;;;;;;2.35;0.47;;;;;;;-145.69;64.17;52103.78;5103487;28;20190;-80
2023/10/24 10:28:49;;;;;;;0.60;0.40;;;;;;;-145.69;64.10;52127.53;5093897;28;20712;-81
2023/10/24 10:31:42;;;;;;;0.50;0.50;;;;;;;-145.69;63.84;52135.47;5104179;28;20200;-82
2023/10/24 10:34:09;;;;;;;1.95;0.50;;;;;;;-145.69;63.97;52139.41;5103459;28;20261;-81
2023/10/24 10:36:38;;;;;;;0.70;0.47;;;;;;;-145.69;64.00;52125.56;5101158;28;20208;-81
2023/10/24 10:39:10;;;;;;;1.83;0.52;;;;;;;-145.69;63.51;52141.41;5097412;28;20214;-81
2023/10/24 10:41:38;;;;;;;0.80;0.50;;;;;;;-145.69;63.56;52127.53;5097491;28;20644;-81
2023/10/24 10:44:36;;;;;;;0.45;0.45;;;;;;;-145.69;62.89;52103.78;5097732;28;20199;-81
2023/10/24 10:47:04;;;;;;;0.35;0.30;;;;;;;-145.69;63.20;52149.31;5094840;28;20187;-80
2023/10/24 10:49:39;;;;;;;1.20;0.45;;;;;;;-145.69;62.82;52129.50;5099602;28;20592;-81
2023/10/24 10:52:12;;;;;;;3.05;0.52;;;;;;;-145.69;62.85;52151.28;5098616;28;20240;-81
2023/10/24 10:54:49;;;;;;;0.47;0.40;;;;;;;-145.69;62.71;52115.66;5099564;28;20226;-82
2023/10/24 10:57:23;;;;;;;0.50;0.50;;;;;;;-145.69;62.74;52099.81;5092280;28;20229;-81
2023/10/24 11:00:02;;;;;;;2.25;0.80;;;;;;;-145.69;62.29;52131.50;5092646;28;20224;-81
2023/10/24 11:02:51;;;;;;;0.30;0.30;;;;;;;-145.69;62.29;52135.47;5100345;28;20190;-81
2023/10/24 11:05:51;;;;;;;0.30;0.30;;;;;;;-145.69;61.86;52127.53;5100309;28;20206;-81
2023/10/24 11:08:22;;;;;;;1.77;0.85;;;;;;;-145.69;61.84;52143.38;5100818;28;20198;-81
2023/10/24 11:11:00;;;;;;;5.32;1.73;;;;;;;-145.69;60.57;52123.56;5100564;28;20202;-81
2023/10/24 11:13:38;;;;;;;3.65;1.80;;;;;;;-145.69;61.34;52109.72;5099401;28;20198;-81
2023/10/24 11:16:07;;;;;;;2.88;1.70;;;;;;;-145.69;61.31;52121.59;5098665;28;20560;-81
2023/10/24 11:18:34;;;;;;;4.75;1.52;;;;;;;-145.69;61.35;52127.53;5078743;28;20206;-81
2023/10/24 11:21:02;;;;;;;2.28;1.05;;;;;;;-145.69;60.83;52083.97;5080410;28;20214;-80